sensor_id;sensor_type;location;lat;lon;timestamp;P1;durP1;ratioP1;P2;durP2;ratioP2
75774;SDS011;64505;51.458;7.556;2023-05-02T00:00:52;19.40;;;11.32;;
75774;SDS011;64505;51.458;7.556;2023-05-02T00:02:53;18.05;;;11.05;;
75774;SDS011;64505;51.458;7.556;2023-05-02T00:04:55;17.15;;;11.13;;
75774;SDS011;64505;51.458;7.556;2023-05-02T00:06:56;21.65;;;12.35;;
75774;SDS011;64505;51.458;7.556;2023-05-02T00:08:58;21.70;;;11.80;;
75774;SDS011;64505;51.458;7.556;2023-05-02T00:10:59;19.15;;;12.23;;
75774;SDS011;64505;51.458;7.556;2023-05-02T00:13:01;21.17;;;12.85;;
75774;SDS011;64505;51.458;7.556;2023-05-02T00:15:02;21.67;;;13.20;;
75774;SDS011;64505;51.458;7.556;2023-05-02T00:17:05;22.77;;;11.98;;
75774;SDS011;64505;51.458;7.556;2023-05-02T00:19:06;21.40;;;12.00;;
75774;SDS011;64505;51.458;7.556;2023-05-02T00:21:08;20.65;;;12.60;;
75774;SDS011;64505;51.458;7.556;2023-05-02T00:23:10;23.15;;;13.77;;
75774;SDS011;64505;51.458;7.556;2023-05-02T00:25:13;24.50;;;13.70;;
75774;SDS011;64505;51.458;7.556;2023-05-02T00:27:16;22.98;;;13.73;;
75774;SDS011;64505;51.458;7.556;2023-05-02T00:29:19;22.30;;;13.32;;
75774;SDS011;64505;51.458;7.556;2023-05-02T00:31:21;25.33;;;13.93;;
75774;SDS011;64505;51.458;7.556;2023-05-02T00:33:22;23.10;;;14.10;;
75774;SDS011;64505;51.458;7.556;2023-05-02T00:35:23;24.70;;;14.73;;
75774;SDS011;64505;51.458;7.556;2023-05-02T00:37:25;27.15;;;15.43;;
75774;SDS011;64505;51.458;7.556;2023-05-02T00:39:28;25.52;;;14.93;;
75774;SDS011;64505;51.458;7.556;2023-05-02T00:41:30;24.88;;;14.80;;
75774;SDS011;64505;51.458;7.556;2023-05-02T00:43:31;24.80;;;15.30;;
75774;SDS011;64505;51.458;7.556;2023-05-02T00:45:33;23.27;;;13.68;;
75774;SDS011;64505;51.458;7.556;2023-05-02T00:47:34;23.95;;;14.23;;
75774;SDS011;64505;51.458;7.556;2023-05-02T00:49:36;24.42;;;15.20;;
75774;SDS011;64505;51.458;7.556;2023-05-02T00:51:37;28.08;;;15.85;;
75774;SDS011;64505;51.458;7.556;2023-05-02T00:53:40;25.27;;;14.27;;
75774;SDS011;64505;51.458;7.556;2023-05-02T00:55:41;26.52;;;15.88;;
75774;SDS011;64505;51.458;7.556;2023-05-02T00:57:43;25.13;;;14.93;;
75774;SDS011;64505;51.458;7.556;2023-05-02T00:59:45;26.75;;;15.13;;
75774;SDS011;64505;51.458;7.556;2023-05-02T01:01:59;24.88;;;14.60;;
75774;SDS011;64505;51.458;7.556;2023-05-02T01:08:54;25.13;;;15.02;;
75774;SDS011;64505;51.458;7.556;2023-05-02T01:11:14;25.92;;;14.77;;
75774;SDS011;64505;51.458;7.556;2023-05-02T01:13:21;24.33;;;15.15;;
75774;SDS011;64505;51.458;7.556;2023-05-02T01:15:26;26.27;;;15.60;;
75774;SDS011;64505;51.458;7.556;2023-05-02T01:17:29;26.63;;;15.38;;
75774;SDS011;64505;51.458;7.556;2023-05-02T01:19:35;28.73;;;16.02;;
75774;SDS011;64505;51.458;7.556;2023-05-02T01:21:38;28.95;;;16.40;;
75774;SDS011;64505;51.458;7.556;2023-05-02T01:23:45;28.77;;;17.23;;
75774;SDS011;64505;51.458;7.556;2023-05-02T01:27:56;28.42;;;14.93;;
75774;SDS011;64505;51.458;7.556;2023-05-02T01:30:14;27.02;;;16.02;;
75774;SDS011;64505;51.458;7.556;2023-05-02T01:32:23;30.75;;;15.80;;
75774;SDS011;64505;51.458;7.556;2023-05-02T01:34:28;34.72;;;18.80;;
75774;SDS011;64505;51.458;7.556;2023-05-02T01:36:32;29.60;;;17.95;;
75774;SDS011;64505;51.458;7.556;2023-05-02T01:38:36;34.88;;;19.88;;
75774;SDS011;64505;51.458;7.556;2023-05-02T01:40:40;31.25;;;18.05;;
75774;SDS011;64505;51.458;7.556;2023-05-02T01:42:46;35.05;;;18.08;;
75774;SDS011;64505;51.458;7.556;2023-05-02T01:44:50;33.83;;;18.92;;
75774;SDS011;64505;51.458;7.556;2023-05-02T01:46:55;33.67;;;18.15;;
75774;SDS011;64505;51.458;7.556;2023-05-02T01:48:58;34.30;;;19.88;;
75774;SDS011;64505;51.458;7.556;2023-05-02T01:51:02;34.33;;;20.08;;
75774;SDS011;64505;51.458;7.556;2023-05-02T01:53:07;30.05;;;18.00;;
75774;SDS011;64505;51.458;7.556;2023-05-02T01:55:12;34.35;;;18.90;;
75774;SDS011;64505;51.458;7.556;2023-05-02T01:57:15;34.97;;;19.02;;
75774;SDS011;64505;51.458;7.556;2023-05-02T01:59:19;32.88;;;18.65;;
75774;SDS011;64505;51.458;7.556;2023-05-02T02:01:23;31.90;;;18.00;;
75774;SDS011;64505;51.458;7.556;2023-05-02T02:03:28;33.75;;;18.58;;
75774;SDS011;64505;51.458;7.556;2023-05-02T02:05:31;36.17;;;18.92;;
75774;SDS011;64505;51.458;7.556;2023-05-02T02:07:35;32.88;;;18.35;;
75774;SDS011;64505;51.458;7.556;2023-05-02T02:09:36;32.67;;;19.00;;
75774;SDS011;64505;51.458;7.556;2023-05-02T02:11:43;34.33;;;19.70;;
75774;SDS011;64505;51.458;7.556;2023-05-02T02:13:48;34.45;;;19.05;;
75774;SDS011;64505;51.458;7.556;2023-05-02T02:15:55;33.03;;;18.77;;
75774;SDS011;64505;51.458;7.556;2023-05-02T02:20:02;32.70;;;18.75;;
75774;SDS011;64505;51.458;7.556;2023-05-02T02:22:06;34.33;;;18.30;;
75774;SDS011;64505;51.458;7.556;2023-05-02T02:24:09;36.65;;;19.98;;
75774;SDS011;64505;51.458;7.556;2023-05-02T02:26:11;36.08;;;19.08;;
75774;SDS011;64505;51.458;7.556;2023-05-02T02:28:14;36.33;;;20.27;;
75774;SDS011;64505;51.458;7.556;2023-05-02T02:30:16;38.38;;;20.45;;
75774;SDS011;64505;51.458;7.556;2023-05-02T02:32:17;37.03;;;20.95;;
75774;SDS011;64505;51.458;7.556;2023-05-02T02:34:19;41.33;;;21.55;;
75774;SDS011;64505;51.458;7.556;2023-05-02T02:36:27;38.78;;;20.35;;
75774;SDS011;64505;51.458;7.556;2023-05-02T02:38:50;36.63;;;20.27;;
75774;SDS011;64505;51.458;7.556;2023-05-02T02:41:18;36.65;;;20.45;;
75774;SDS011;64505;51.458;7.556;2023-05-02T02:45:47;36.97;;;19.95;;
75774;SDS011;64505;51.458;7.556;2023-05-02T02:50:30;37.10;;;19.15;;
75774;SDS011;64505;51.458;7.556;2023-05-02T02:52:49;35.05;;;19.02;;
75774;SDS011;64505;51.458;7.556;2023-05-02T02:54:57;39.10;;;19.48;;
75774;SDS011;64505;51.458;7.556;2023-05-02T02:57:03;38.45;;;20.60;;
75774;SDS011;64505;51.458;7.556;2023-05-02T02:59:14;37.80;;;19.27;;
75774;SDS011;64505;51.458;7.556;2023-05-02T03:01:17;40.95;;;21.17;;
75774;SDS011;64505;51.458;7.556;2023-05-02T03:03:22;38.35;;;20.58;;
75774;SDS011;64505;51.458;7.556;2023-05-02T03:05:29;38.20;;;19.75;;
75774;SDS011;64505;51.458;7.556;2023-05-02T03:07:32;36.60;;;18.48;;
75774;SDS011;64505;51.458;7.556;2023-05-02T03:11:45;37.83;;;19.15;;
75774;SDS011;64505;51.458;7.556;2023-05-02T03:13:47;33.70;;;18.27;;
75774;SDS011;64505;51.458;7.556;2023-05-02T03:17:54;33.70;;;18.02;;
75774;SDS011;64505;51.458;7.556;2023-05-02T03:19:55;37.22;;;18.10;;
75774;SDS011;64505;51.458;7.556;2023-05-02T03:21:57;33.88;;;19.13;;
75774;SDS011;64505;51.458;7.556;2023-05-02T03:23:59;37.83;;;18.00;;
75774;SDS011;64505;51.458;7.556;2023-05-02T03:26:01;37.70;;;18.23;;
75774;SDS011;64505;51.458;7.556;2023-05-02T03:28:03;33.58;;;17.70;;
75774;SDS011;64505;51.458;7.556;2023-05-02T03:30:04;35.33;;;17.08;;
75774;SDS011;64505;51.458;7.556;2023-05-02T03:32:06;36.03;;;17.98;;
75774;SDS011;64505;51.458;7.556;2023-05-02T03:34:08;33.40;;;15.88;;
75774;SDS011;64505;51.458;7.556;2023-05-02T03:36:10;33.25;;;16.08;;
75774;SDS011;64505;51.458;7.556;2023-05-02T03:38:12;32.05;;;17.33;;
75774;SDS011;64505;51.458;7.556;2023-05-02T03:40:13;32.53;;;16.95;;
75774;SDS011;64505;51.458;7.556;2023-05-02T03:42:15;30.27;;;16.45;;
75774;SDS011;64505;51.458;7.556;2023-05-02T03:44:16;31.02;;;15.73;;
75774;SDS011;64505;51.458;7.556;2023-05-02T03:46:18;33.20;;;16.25;;
75774;SDS011;64505;51.458;7.556;2023-05-02T03:48:19;32.80;;;15.68;;
75774;SDS011;64505;51.458;7.556;2023-05-02T03:50:21;31.88;;;16.23;;
75774;SDS011;64505;51.458;7.556;2023-05-02T03:52:23;29.83;;;14.40;;
75774;SDS011;64505;51.458;7.556;2023-05-02T03:54:25;30.52;;;15.23;;
75774;SDS011;64505;51.458;7.556;2023-05-02T03:56:26;27.05;;;14.35;;
75774;SDS011;64505;51.458;7.556;2023-05-02T03:58:28;32.38;;;14.52;;
75774;SDS011;64505;51.458;7.556;2023-05-02T04:00:30;26.92;;;13.55;;
75774;SDS011;64505;51.458;7.556;2023-05-02T04:02:32;27.35;;;14.02;;
75774;SDS011;64505;51.458;7.556;2023-05-02T04:04:33;27.13;;;14.55;;
75774;SDS011;64505;51.458;7.556;2023-05-02T04:06:35;28.52;;;13.23;;
75774;SDS011;64505;51.458;7.556;2023-05-02T04:08:36;28.52;;;13.40;;
75774;SDS011;64505;51.458;7.556;2023-05-02T04:10:38;25.25;;;12.75;;
75774;SDS011;64505;51.458;7.556;2023-05-02T04:12:39;25.77;;;12.63;;
75774;SDS011;64505;51.458;7.556;2023-05-02T04:14:41;26.17;;;12.35;;
75774;SDS011;64505;51.458;7.556;2023-05-02T04:16:49;25.75;;;12.05;;
75774;SDS011;64505;51.458;7.556;2023-05-02T04:18:51;24.33;;;11.27;;
75774;SDS011;64505;51.458;7.556;2023-05-02T04:20:52;24.80;;;11.27;;
75774;SDS011;64505;51.458;7.556;2023-05-02T04:22:53;27.45;;;11.57;;
75774;SDS011;64505;51.458;7.556;2023-05-02T04:24:55;22.35;;;10.50;;
75774;SDS011;64505;51.458;7.556;2023-05-02T04:26:56;22.90;;;11.55;;
75774;SDS011;64505;51.458;7.556;2023-05-02T04:28:58;21.30;;;10.45;;
75774;SDS011;64505;51.458;7.556;2023-05-02T04:30:59;21.73;;;10.13;;
75774;SDS011;64505;51.458;7.556;2023-05-02T04:33:01;22.60;;;10.75;;
75774;SDS011;64505;51.458;7.556;2023-05-02T04:35:02;24.48;;;10.73;;
75774;SDS011;64505;51.458;7.556;2023-05-02T04:37:04;24.45;;;10.75;;
75774;SDS011;64505;51.458;7.556;2023-05-02T04:39:06;24.55;;;10.93;;
75774;SDS011;64505;51.458;7.556;2023-05-02T04:41:08;23.08;;;11.15;;
75774;SDS011;64505;51.458;7.556;2023-05-02T04:43:10;23.52;;;11.00;;
75774;SDS011;64505;51.458;7.556;2023-05-02T04:45:11;23.80;;;11.65;;
75774;SDS011;64505;51.458;7.556;2023-05-02T04:47:12;24.38;;;10.45;;
75774;SDS011;64505;51.458;7.556;2023-05-02T04:49:14;19.48;;;10.18;;
75774;SDS011;64505;51.458;7.556;2023-05-02T04:51:15;21.98;;;10.73;;
75774;SDS011;64505;51.458;7.556;2023-05-02T04:53:17;22.77;;;10.82;;
75774;SDS011;64505;51.458;7.556;2023-05-02T04:55:18;21.98;;;9.85;;
75774;SDS011;64505;51.458;7.556;2023-05-02T04:57:20;24.13;;;10.65;;
75774;SDS011;64505;51.458;7.556;2023-05-02T04:59:23;24.02;;;10.10;;
75774;SDS011;64505;51.458;7.556;2023-05-02T05:01:25;22.90;;;9.75;;
75774;SDS011;64505;51.458;7.556;2023-05-02T05:03:29;21.20;;;9.82;;
75774;SDS011;64505;51.458;7.556;2023-05-02T05:05:31;24.65;;;10.50;;
75774;SDS011;64505;51.458;7.556;2023-05-02T05:07:33;21.88;;;9.75;;
75774;SDS011;64505;51.458;7.556;2023-05-02T05:09:34;19.80;;;9.38;;
75774;SDS011;64505;51.458;7.556;2023-05-02T05:11:35;20.27;;;10.75;;
75774;SDS011;64505;51.458;7.556;2023-05-02T05:13:38;22.05;;;9.77;;
75774;SDS011;64505;51.458;7.556;2023-05-02T05:15:40;22.15;;;10.48;;
75774;SDS011;64505;51.458;7.556;2023-05-02T05:17:41;20.23;;;9.40;;
75774;SDS011;64505;51.458;7.556;2023-05-02T05:19:43;21.20;;;10.45;;
75774;SDS011;64505;51.458;7.556;2023-05-02T05:21:44;18.05;;;9.10;;
75774;SDS011;64505;51.458;7.556;2023-05-02T05:23:46;21.38;;;10.13;;
75774;SDS011;64505;51.458;7.556;2023-05-02T05:25:47;19.13;;;9.57;;
75774;SDS011;64505;51.458;7.556;2023-05-02T05:27:49;21.92;;;10.48;;
75774;SDS011;64505;51.458;7.556;2023-05-02T05:29:52;23.45;;;10.75;;
75774;SDS011;64505;51.458;7.556;2023-05-02T05:31:53;20.88;;;9.70;;
75774;SDS011;64505;51.458;7.556;2023-05-02T05:33:55;22.75;;;10.45;;
75774;SDS011;64505;51.458;7.556;2023-05-02T05:36:01;20.48;;;10.95;;
75774;SDS011;64505;51.458;7.556;2023-05-02T05:38:04;22.30;;;10.50;;
75774;SDS011;64505;51.458;7.556;2023-05-02T05:40:06;22.52;;;10.90;;
75774;SDS011;64505;51.458;7.556;2023-05-02T05:42:08;23.15;;;10.55;;
75774;SDS011;64505;51.458;7.556;2023-05-02T05:44:10;20.15;;;10.40;;
75774;SDS011;64505;51.458;7.556;2023-05-02T05:46:11;19.67;;;10.30;;
75774;SDS011;64505;51.458;7.556;2023-05-02T05:48:12;21.35;;;10.38;;
75774;SDS011;64505;51.458;7.556;2023-05-02T05:50:14;20.63;;;9.55;;
75774;SDS011;64505;51.458;7.556;2023-05-02T05:52:21;19.90;;;10.05;;
75774;SDS011;64505;51.458;7.556;2023-05-02T05:54:23;20.20;;;10.18;;
75774;SDS011;64505;51.458;7.556;2023-05-02T05:56:25;23.75;;;9.93;;
75774;SDS011;64505;51.458;7.556;2023-05-02T05:58:27;20.63;;;10.13;;
75774;SDS011;64505;51.458;7.556;2023-05-02T06:00:28;18.30;;;9.35;;
75774;SDS011;64505;51.458;7.556;2023-05-02T06:02:30;15.98;;;8.10;;
75774;SDS011;64505;51.458;7.556;2023-05-02T06:04:31;16.88;;;8.57;;
75774;SDS011;64505;51.458;7.556;2023-05-02T06:06:33;15.32;;;7.38;;
75774;SDS011;64505;51.458;7.556;2023-05-02T06:08:34;12.32;;;6.28;;
75774;SDS011;64505;51.458;7.556;2023-05-02T06:10:36;10.55;;;5.53;;
75774;SDS011;64505;51.458;7.556;2023-05-02T06:12:37;10.85;;;5.63;;
75774;SDS011;64505;51.458;7.556;2023-05-02T06:14:39;10.95;;;4.75;;
75774;SDS011;64505;51.458;7.556;2023-05-02T06:16:41;9.73;;;4.70;;
75774;SDS011;64505;51.458;7.556;2023-05-02T06:18:43;8.90;;;3.90;;
75774;SDS011;64505;51.458;7.556;2023-05-02T06:20:44;10.27;;;4.28;;
75774;SDS011;64505;51.458;7.556;2023-05-02T06:22:46;10.27;;;4.10;;
75774;SDS011;64505;51.458;7.556;2023-05-02T06:24:47;8.13;;;3.38;;
75774;SDS011;64505;51.458;7.556;2023-05-02T06:26:49;5.88;;;3.25;;
75774;SDS011;64505;51.458;7.556;2023-05-02T06:28:53;8.00;;;3.63;;
75774;SDS011;64505;51.458;7.556;2023-05-02T06:31:02;9.70;;;3.47;;
75774;SDS011;64505;51.458;7.556;2023-05-02T06:33:06;8.02;;;3.30;;
75774;SDS011;64505;51.458;7.556;2023-05-02T06:35:07;8.23;;;3.70;;
75774;SDS011;64505;51.458;7.556;2023-05-02T06:37:10;7.38;;;3.00;;
75774;SDS011;64505;51.458;7.556;2023-05-02T06:39:11;8.48;;;3.40;;
75774;SDS011;64505;51.458;7.556;2023-05-02T06:41:13;9.07;;;3.70;;
75774;SDS011;64505;51.458;7.556;2023-05-02T06:43:18;7.40;;;3.53;;
75774;SDS011;64505;51.458;7.556;2023-05-02T06:45:19;9.55;;;3.42;;
75774;SDS011;64505;51.458;7.556;2023-05-02T06:47:21;9.60;;;3.58;;
75774;SDS011;64505;51.458;7.556;2023-05-02T06:49:25;9.02;;;3.40;;
75774;SDS011;64505;51.458;7.556;2023-05-02T06:51:26;7.45;;;3.28;;
75774;SDS011;64505;51.458;7.556;2023-05-02T06:53:28;7.18;;;3.78;;
75774;SDS011;64505;51.458;7.556;2023-05-02T06:55:33;8.10;;;3.17;;
75774;SDS011;64505;51.458;7.556;2023-05-02T06:57:34;7.68;;;3.05;;
75774;SDS011;64505;51.458;7.556;2023-05-02T06:59:35;6.82;;;3.05;;
75774;SDS011;64505;51.458;7.556;2023-05-02T07:01:37;8.50;;;3.25;;
75774;SDS011;64505;51.458;7.556;2023-05-02T07:03:39;7.18;;;3.03;;
75774;SDS011;64505;51.458;7.556;2023-05-02T07:05:40;5.97;;;3.15;;
75774;SDS011;64505;51.458;7.556;2023-05-02T07:07:42;6.68;;;2.88;;
75774;SDS011;64505;51.458;7.556;2023-05-02T07:09:44;9.32;;;2.80;;
75774;SDS011;64505;51.458;7.556;2023-05-02T07:11:45;7.20;;;2.97;;
75774;SDS011;64505;51.458;7.556;2023-05-02T07:13:47;7.45;;;2.47;;
75774;SDS011;64505;51.458;7.556;2023-05-02T07:15:48;7.32;;;2.90;;
75774;SDS011;64505;51.458;7.556;2023-05-02T07:17:50;6.72;;;2.58;;
75774;SDS011;64505;51.458;7.556;2023-05-02T07:19:51;7.53;;;3.03;;
75774;SDS011;64505;51.458;7.556;2023-05-02T07:21:53;6.30;;;2.92;;
75774;SDS011;64505;51.458;7.556;2023-05-02T07:23:54;7.68;;;3.15;;
75774;SDS011;64505;51.458;7.556;2023-05-02T07:25:57;6.43;;;2.70;;
75774;SDS011;64505;51.458;7.556;2023-05-02T07:27:59;7.82;;;3.30;;
75774;SDS011;64505;51.458;7.556;2023-05-02T07:30:00;6.75;;;2.53;;
75774;SDS011;64505;51.458;7.556;2023-05-02T07:32:02;12.90;;;3.60;;
75774;SDS011;64505;51.458;7.556;2023-05-02T07:34:04;8.82;;;3.33;;
75774;SDS011;64505;51.458;7.556;2023-05-02T07:36:06;5.85;;;2.83;;
75774;SDS011;64505;51.458;7.556;2023-05-02T07:38:07;6.03;;;3.03;;
75774;SDS011;64505;51.458;7.556;2023-05-02T07:40:09;5.88;;;2.80;;
75774;SDS011;64505;51.458;7.556;2023-05-02T07:42:10;8.30;;;3.42;;
75774;SDS011;64505;51.458;7.556;2023-05-02T07:44:12;8.20;;;4.18;;
75774;SDS011;64505;51.458;7.556;2023-05-02T07:46:13;7.70;;;3.38;;
75774;SDS011;64505;51.458;7.556;2023-05-02T07:48:15;5.80;;;3.00;;
75774;SDS011;64505;51.458;7.556;2023-05-02T07:50:16;7.38;;;3.30;;
75774;SDS011;64505;51.458;7.556;2023-05-02T07:52:18;7.55;;;3.47;;
75774;SDS011;64505;51.458;7.556;2023-05-02T07:54:20;6.80;;;2.65;;
75774;SDS011;64505;51.458;7.556;2023-05-02T07:56:23;4.97;;;2.30;;
75774;SDS011;64505;51.458;7.556;2023-05-02T07:58:24;5.95;;;2.60;;
75774;SDS011;64505;51.458;7.556;2023-05-02T08:00:26;7.10;;;2.63;;
75774;SDS011;64505;51.458;7.556;2023-05-02T08:02:28;9.40;;;3.25;;
75774;SDS011;64505;51.458;7.556;2023-05-02T08:04:30;11.52;;;3.35;;
75774;SDS011;64505;51.458;7.556;2023-05-02T08:06:31;6.68;;;2.50;;
75774;SDS011;64505;51.458;7.556;2023-05-02T08:08:35;4.45;;;2.20;;
75774;SDS011;64505;51.458;7.556;2023-05-02T08:10:37;6.03;;;2.50;;
75774;SDS011;64505;51.458;7.556;2023-05-02T08:12:39;10.35;;;4.55;;
75774;SDS011;64505;51.458;7.556;2023-05-02T08:14:41;6.72;;;4.03;;
75774;SDS011;64505;51.458;7.556;2023-05-02T08:16:43;5.05;;;2.60;;
75774;SDS011;64505;51.458;7.556;2023-05-02T08:18:46;3.78;;;1.85;;
75774;SDS011;64505;51.458;7.556;2023-05-02T08:20:48;3.47;;;1.63;;
75774;SDS011;64505;51.458;7.556;2023-05-02T08:22:50;2.50;;;1.23;;
75774;SDS011;64505;51.458;7.556;2023-05-02T08:24:52;4.15;;;1.33;;
75774;SDS011;64505;51.458;7.556;2023-05-02T08:26:53;3.65;;;1.48;;
75774;SDS011;64505;51.458;7.556;2023-05-02T08:28:55;4.28;;;1.40;;
75774;SDS011;64505;51.458;7.556;2023-05-02T08:30:56;5.07;;;1.45;;
75774;SDS011;64505;51.458;7.556;2023-05-02T08:32:57;4.50;;;1.63;;
75774;SDS011;64505;51.458;7.556;2023-05-02T08:34:59;4.65;;;1.65;;
75774;SDS011;64505;51.458;7.556;2023-05-02T08:37:00;4.22;;;1.70;;
75774;SDS011;64505;51.458;7.556;2023-05-02T08:39:02;4.07;;;1.67;;
75774;SDS011;64505;51.458;7.556;2023-05-02T08:41:11;6.30;;;1.80;;
75774;SDS011;64505;51.458;7.556;2023-05-02T08:43:15;7.18;;;1.80;;
75774;SDS011;64505;51.458;7.556;2023-05-02T08:45:17;5.50;;;1.90;;
75774;SDS011;64505;51.458;7.556;2023-05-02T08:47:20;7.05;;;2.22;;
75774;SDS011;64505;51.458;7.556;2023-05-02T08:49:23;8.25;;;2.60;;
75774;SDS011;64505;51.458;7.556;2023-05-02T08:51:25;6.60;;;2.10;;
75774;SDS011;64505;51.458;7.556;2023-05-02T08:53:30;7.60;;;2.55;;
75774;SDS011;64505;51.458;7.556;2023-05-02T08:55:35;6.75;;;2.25;;
75774;SDS011;64505;51.458;7.556;2023-05-02T08:57:40;8.63;;;2.55;;
75774;SDS011;64505;51.458;7.556;2023-05-02T08:59:43;6.22;;;2.83;;
75774;SDS011;64505;51.458;7.556;2023-05-02T09:01:45;6.70;;;2.53;;
75774;SDS011;64505;51.458;7.556;2023-05-02T09:03:50;8.40;;;2.70;;
75774;SDS011;64505;51.458;7.556;2023-05-02T09:05:53;7.50;;;2.83;;
75774;SDS011;64505;51.458;7.556;2023-05-02T09:08:02;7.82;;;2.70;;
75774;SDS011;64505;51.458;7.556;2023-05-02T09:10:04;8.68;;;3.00;;
75774;SDS011;64505;51.458;7.556;2023-05-02T09:12:07;7.40;;;3.17;;
75774;SDS011;64505;51.458;7.556;2023-05-02T09:14:15;11.88;;;3.97;;
75774;SDS011;64505;51.458;7.556;2023-05-02T09:16:21;8.27;;;3.80;;
75774;SDS011;64505;51.458;7.556;2023-05-02T09:18:29;10.93;;;4.40;;
75774;SDS011;64505;51.458;7.556;2023-05-02T09:22:50;11.15;;;5.22;;
75774;SDS011;64505;51.458;7.556;2023-05-02T09:24:53;10.15;;;4.72;;
75774;SDS011;64505;51.458;7.556;2023-05-02T09:27:02;11.30;;;5.75;;
75774;SDS011;64505;51.458;7.556;2023-05-02T09:29:05;12.40;;;5.97;;
75774;SDS011;64505;51.458;7.556;2023-05-02T09:31:07;14.65;;;6.80;;
75774;SDS011;64505;51.458;7.556;2023-05-02T09:33:12;12.98;;;5.88;;
75774;SDS011;64505;51.458;7.556;2023-05-02T09:35:27;14.68;;;5.70;;
75774;SDS011;64505;51.458;7.556;2023-05-02T09:37:34;8.50;;;5.10;;
75774;SDS011;64505;51.458;7.556;2023-05-02T09:39:35;10.90;;;5.10;;
75774;SDS011;64505;51.458;7.556;2023-05-02T09:43:43;10.52;;;4.47;;
75774;SDS011;64505;51.458;7.556;2023-05-02T09:45:54;7.75;;;3.53;;
75774;SDS011;64505;51.458;7.556;2023-05-02T09:48:03;7.18;;;3.00;;
75774;SDS011;64505;51.458;7.556;2023-05-02T09:50:05;9.23;;;3.53;;
75774;SDS011;64505;51.458;7.556;2023-05-02T09:52:10;6.93;;;3.20;;
75774;SDS011;64505;51.458;7.556;2023-05-02T09:54:13;8.60;;;3.85;;
75774;SDS011;64505;51.458;7.556;2023-05-02T09:56:15;9.13;;;3.38;;
75774;SDS011;64505;51.458;7.556;2023-05-02T09:58:21;9.50;;;3.40;;
75774;SDS011;64505;51.458;7.556;2023-05-02T10:00:42;6.68;;;3.42;;
75774;SDS011;64505;51.458;7.556;2023-05-02T10:02:45;11.85;;;3.80;;
75774;SDS011;64505;51.458;7.556;2023-05-02T10:04:50;8.23;;;3.97;;
75774;SDS011;64505;51.458;7.556;2023-05-02T10:06:53;7.38;;;3.40;;
75774;SDS011;64505;51.458;7.556;2023-05-02T10:08:55;8.25;;;3.78;;
75774;SDS011;64505;51.458;7.556;2023-05-02T10:10:58;7.50;;;3.20;;
75774;SDS011;64505;51.458;7.556;2023-05-02T10:13:00;7.95;;;3.60;;
75774;SDS011;64505;51.458;7.556;2023-05-02T10:15:03;10.40;;;3.70;;
75774;SDS011;64505;51.458;7.556;2023-05-02T10:17:13;9.82;;;3.70;;
75774;SDS011;64505;51.458;7.556;2023-05-02T10:19:22;9.82;;;4.50;;
75774;SDS011;64505;51.458;7.556;2023-05-02T10:21:27;11.68;;;4.50;;
75774;SDS011;64505;51.458;7.556;2023-05-02T10:23:29;9.30;;;4.20;;
75774;SDS011;64505;51.458;7.556;2023-05-02T10:25:30;9.90;;;4.47;;
75774;SDS011;64505;51.458;7.556;2023-05-02T10:27:33;10.45;;;4.57;;
75774;SDS011;64505;51.458;7.556;2023-05-02T10:29:34;10.70;;;5.25;;
75774;SDS011;64505;51.458;7.556;2023-05-02T10:31:37;10.80;;;5.45;;
75774;SDS011;64505;51.458;7.556;2023-05-02T10:33:43;11.85;;;5.32;;
75774;SDS011;64505;51.458;7.556;2023-05-02T10:35:46;10.95;;;4.07;;
75774;SDS011;64505;51.458;7.556;2023-05-02T10:37:48;8.43;;;4.43;;
75774;SDS011;64505;51.458;7.556;2023-05-02T10:39:50;6.70;;;3.47;;
75774;SDS011;64505;51.458;7.556;2023-05-02T10:41:52;10.38;;;3.70;;
75774;SDS011;64505;51.458;7.556;2023-05-02T10:43:56;9.93;;;3.25;;
75774;SDS011;64505;51.458;7.556;2023-05-02T10:45:58;10.32;;;3.50;;
75774;SDS011;64505;51.458;7.556;2023-05-02T10:48:16;11.35;;;3.30;;
75774;SDS011;64505;51.458;7.556;2023-05-02T10:50:41;9.05;;;3.53;;
75774;SDS011;64505;51.458;7.556;2023-05-02T10:52:43;9.93;;;3.75;;
75774;SDS011;64505;51.458;7.556;2023-05-02T10:54:45;8.88;;;4.28;;
75774;SDS011;64505;51.458;7.556;2023-05-02T11:06:04;12.25;;;5.00;;
75774;SDS011;64505;51.458;7.556;2023-05-02T11:10:23;13.32;;;5.18;;
75774;SDS011;64505;51.458;7.556;2023-05-02T11:12:45;11.38;;;4.55;;
75774;SDS011;64505;51.458;7.556;2023-05-02T11:14:49;12.48;;;5.47;;
75774;SDS011;64505;51.458;7.556;2023-05-02T11:18:59;15.07;;;6.05;;
75774;SDS011;64505;51.458;7.556;2023-05-02T11:21:47;10.18;;;4.97;;
75774;SDS011;64505;51.458;7.556;2023-05-02T11:23:28;11.15;;;4.43;;
75774;SDS011;64505;51.458;7.556;2023-05-02T11:25:37;11.00;;;5.30;;
75774;SDS011;64505;51.458;7.556;2023-05-02T11:27:39;18.13;;;5.70;;
75774;SDS011;64505;51.458;7.556;2023-05-02T11:29:50;13.40;;;5.60;;
75774;SDS011;64505;51.458;7.556;2023-05-02T11:31:52;12.82;;;4.60;;
75774;SDS011;64505;51.458;7.556;2023-05-02T11:34:03;12.25;;;4.78;;
75774;SDS011;64505;51.458;7.556;2023-05-02T11:36:05;8.90;;;4.30;;
75774;SDS011;64505;51.458;7.556;2023-05-02T11:38:10;10.95;;;4.55;;
75774;SDS011;64505;51.458;7.556;2023-05-02T11:40:13;10.35;;;4.28;;
75774;SDS011;64505;51.458;7.556;2023-05-02T11:42:28;10.10;;;4.88;;
75774;SDS011;64505;51.458;7.556;2023-05-02T11:44:30;17.02;;;5.57;;
75774;SDS011;64505;51.458;7.556;2023-05-02T11:46:32;14.95;;;5.55;;
75774;SDS011;64505;51.458;7.556;2023-05-02T11:48:36;12.60;;;4.85;;
75774;SDS011;64505;51.458;7.556;2023-05-02T11:50:48;11.80;;;4.55;;
75774;SDS011;64505;51.458;7.556;2023-05-02T11:52:51;11.43;;;4.75;;
75774;SDS011;64505;51.458;7.556;2023-05-02T11:54:53;11.32;;;3.97;;
75774;SDS011;64505;51.458;7.556;2023-05-02T11:56:59;8.00;;;3.97;;
75774;SDS011;64505;51.458;7.556;2023-05-02T11:59:02;12.70;;;3.83;;
75774;SDS011;64505;51.458;7.556;2023-05-02T12:01:10;12.95;;;4.32;;
75774;SDS011;64505;51.458;7.556;2023-05-02T12:03:23;12.65;;;4.45;;
75774;SDS011;64505;51.458;7.556;2023-05-02T12:05:32;9.18;;;4.13;;
75774;SDS011;64505;51.458;7.556;2023-05-02T12:09:40;12.57;;;3.63;;
75774;SDS011;64505;51.458;7.556;2023-05-02T12:11:51;6.75;;;3.10;;
75774;SDS011;64505;51.458;7.556;2023-05-02T12:13:53;12.27;;;3.33;;
75774;SDS011;64505;51.458;7.556;2023-05-02T12:15:55;11.32;;;3.60;;
75774;SDS011;64505;51.458;7.556;2023-05-02T12:17:57;11.23;;;3.92;;
75774;SDS011;64505;51.458;7.556;2023-05-02T12:19:59;9.10;;;3.72;;
75774;SDS011;64505;51.458;7.556;2023-05-02T12:22:03;8.85;;;3.45;;
75774;SDS011;64505;51.458;7.556;2023-05-02T12:24:05;9.98;;;3.63;;
75774;SDS011;64505;51.458;7.556;2023-05-02T12:26:20;13.05;;;3.92;;
75774;SDS011;64505;51.458;7.556;2023-05-02T12:28:25;11.50;;;3.50;;
75774;SDS011;64505;51.458;7.556;2023-05-02T12:30:27;7.95;;;3.28;;
75774;SDS011;64505;51.458;7.556;2023-05-02T12:32:30;12.10;;;4.05;;
75774;SDS011;64505;51.458;7.556;2023-05-02T12:34:33;7.05;;;3.30;;
75774;SDS011;64505;51.458;7.556;2023-05-02T12:36:42;8.88;;;3.65;;
75774;SDS011;64505;51.458;7.556;2023-05-02T12:38:50;5.80;;;3.03;;
75774;SDS011;64505;51.458;7.556;2023-05-02T12:40:54;9.88;;;3.10;;
75774;SDS011;64505;51.458;7.556;2023-05-02T12:42:59;8.40;;;3.08;;
75774;SDS011;64505;51.458;7.556;2023-05-02T12:45:04;11.30;;;3.85;;
75774;SDS011;64505;51.458;7.556;2023-05-02T12:47:16;7.70;;;3.92;;
75774;SDS011;64505;51.458;7.556;2023-05-02T12:49:19;11.73;;;3.95;;
75774;SDS011;64505;51.458;7.556;2023-05-02T12:51:21;6.53;;;3.22;;